Shirley, United Kingdom
Current Conditions -  °F | °C
As of 12:20 AM on Sunday 21 Dec 2014 (Local Time) from EGBB Reporting Station
Broken Clouds Broken Clouds  
Wind Chill:   Ceiling: 3900
Heat Index:   Visibility: 6mi
Dew Point:   Wind: 5mph
Humidity: 87%   Direction: 210°SSW
Pressure: 30.39"   Gusts: NA
Location:  52.41°N, 1.83°W
Report Text: EGBB 210020Z 21004KT 9999 BKN039 06/04 Q1029
Loading
Personal Weather Stations






























Interactive Weather Map New forecast layout! Learn more

10-Day Weather Forecast

Advertisements
Track Severe Weather on mobile